Time;durP1;ratioP1;P1;durP2;ratioP2;P2;SDS_P1;SDS_P2;PMS_P1;PMS_P2;Temp;Humidity;BMP_temperature;BMP_pressure;BME280_temperature;BME280_humidity;BME280_pressure;Samples;Min_cycle;Max_cycle;Signal;HPM_P1;HPM_P2
2021/09/19 00:01:22;;;;;;;5.45;4.70;;;;;;;12.61;100.00;94499.44;5054992;28;20060;-57
2021/09/19 00:03:54;;;;;;;4.93;4.13;;;;;;;12.59;100.00;94489.00;5052975;28;20060;-53
2021/09/19 00:06:19;;;;;;;6.13;4.75;;;;;;;12.56;100.00;94483.38;5054357;28;20029;-57
2021/09/19 00:08:45;;;;;;;6.07;4.32;;;;;;;12.58;100.00;94483.88;5054205;28;20078;-56
2021/09/19 00:11:10;;;;;;;5.25;4.65;;;;;;;12.54;100.00;94488.25;5052921;28;20025;-55
2021/09/19 00:13:35;;;;;;;5.93;4.13;;;;;;;12.48;100.00;94482.97;5054249;28;20032;-56
2021/09/19 00:16:01;;;;;;;5.10;4.60;;;;;;;12.43;100.00;94484.91;5052813;28;20044;-56
2021/09/19 00:18:29;;;;;;;5.57;4.15;;;;;;;12.38;100.00;94491.19;5042784;28;20036;-57
2021/09/19 00:20:58;;;;;;;8.30;5.28;;;;;;;12.33;100.00;94499.28;5032857;28;20026;-53
2021/09/19 00:23:23;;;;;;;7.63;4.97;;;;;;;12.29;100.00;94509.03;5034107;28;20385;-53
2021/09/19 00:25:55;;;;;;;5.78;4.75;;;;;;;12.24;100.00;94514.44;5034030;28;20025;-55
2021/09/19 00:28:22;;;;;;;5.28;4.55;;;;;;;12.19;100.00;94525.25;5033849;28;20045;-57
2021/09/19 00:30:48;;;;;;;5.97;5.18;;;;;;;12.16;100.00;94528.53;5033689;28;20567;-58
2021/09/19 00:33:13;;;;;;;6.80;5.00;;;;;;;12.12;100.00;94547.09;5033868;28;20548;-55
2021/09/19 00:35:48;;;;;;;5.78;5.18;;;;;;;12.08;100.00;94539.91;5033642;28;20091;-58
2021/09/19 00:38:13;;;;;;;6.15;5.25;;;;;;;12.01;100.00;94544.81;5033540;28;20384;-59
2021/09/19 00:40:38;;;;;;;5.63;4.70;;;;;;;11.99;100.00;94560.41;5033674;28;20021;-57
2021/09/19 00:43:22;;;;;;;6.80;5.05;;;;;;;11.94;100.00;94560.44;5044304;28;20033;-54
2021/09/19 00:45:48;;;;;;;6.13;4.90;;;;;;;11.90;100.00;94555.66;5046215;28;20126;-53
2021/09/19 00:48:16;;;;;;;7.22;4.93;;;;;;;11.84;100.00;94556.81;5033685;28;20087;-56
2021/09/19 00:50:42;;;;;;;5.75;4.70;;;;;;;11.84;100.00;94564.88;5037459;28;20377;-54
2021/09/19 00:53:08;;;;;;;5.90;5.30;;;;;;;11.84;100.00;94558.69;5032229;28;20022;-53
2021/09/19 00:55:34;;;;;;;7.72;5.18;;;;;;;11.84;100.00;94558.69;5033517;28;20041;-57
2021/09/19 00:58:05;;;;;;;6.38;4.78;;;;;;;11.83;100.00;94557.06;5033193;28;20021;-53
2021/09/19 01:00:30;;;;;;;7.90;5.18;;;;;;;11.81;100.00;94576.16;5033408;28;20503;-51
2021/09/19 01:02:58;;;;;;;6.10;4.60;;;;;;;11.80;100.00;94585.28;5032131;28;20037;-56
2021/09/19 01:05:33;;;;;;;6.22;4.93;;;;;;;11.76;100.00;94581.53;5033403;28;20392;-56
2021/09/19 01:08:01;;;;;;;6.47;4.18;;;;;;;11.64;100.00;94578.47;5033164;28;20018;-54
2021/09/19 01:10:27;;;;;;;5.32;4.30;;;;;;;11.54;100.00;94595.44;5041165;28;20029;-54
2021/09/19 01:12:55;;;;;;;5.65;5.00;;;;;;;11.43;100.00;94607.34;5053076;28;20563;-56
2021/09/19 01:15:22;;;;;;;5.35;4.18;;;;;;;11.33;100.00;94610.91;5052233;28;20060;-56
2021/09/19 01:17:52;;;;;;;5.15;4.60;;;;;;;11.19;100.00;94609.97;5051606;28;20029;-58
2021/09/19 01:20:21;;;;;;;6.88;4.72;;;;;;;11.08;100.00;94616.47;5052934;28;20052;-57
2021/09/19 01:23:17;;;;;;;8.13;4.68;;;;;;;10.97;100.00;94628.34;5051633;28;20051;-53
2021/09/19 01:25:44;;;;;;;5.82;4.40;;;;;;;10.81;100.00;94629.50;5041104;28;20091;-55
2021/09/19 01:28:13;;;;;;;5.30;4.65;;;;;;;10.66;100.00;94625.03;5051250;28;20504;-54
2021/09/19 01:30:38;;;;;;;7.25;4.57;;;;;;;10.58;100.00;94626.41;5034847;28;20063;-53
2021/09/19 01:33:13;;;;;;;5.68;4.78;;;;;;;10.57;100.00;94630.16;5051474;28;20048;-56
2021/09/19 01:35:41;;;;;;;7.47;5.00;;;;;;;10.67;100.00;94642.72;5051229;28;20103;-55
2021/09/19 01:38:16;;;;;;;7.18;5.32;;;;;;;10.80;100.00;94649.31;5052520;28;20203;-56
2021/09/19 01:40:41;;;;;;;9.70;4.97;;;;;;;10.85;100.00;94654.66;5051403;28;20025;-55
2021/09/19 01:43:07;;;;;;;6.85;5.00;;;;;;;10.96;100.00;94648.97;5051578;28;20239;-59
2021/09/19 01:45:40;;;;;;;5.90;5.03;;;;;;;11.04;100.00;94651.03;5033741;28;20022;-58
2021/09/19 01:48:05;;;;;;;;;;;;;;;11.07;100.00;94646.22;5032840;28;20041;-56
2021/09/19 01:50:34;;;;;;;6.50;4.80;;;;;;;11.09;100.00;94650.22;5037771;28;19915;-54
2021/09/19 01:53:02;;;;;;;6.95;5.57;;;;;;;11.11;100.00;94649.94;5032624;28;20103;-58
2021/09/19 01:55:30;;;;;;;7.90;5.25;;;;;;;11.09;100.00;94644.88;5038344;28;20377;-57
2021/09/19 01:57:56;;;;;;;6.15;5.20;;;;;;;11.11;100.00;94636.56;5049347;28;20086;-56
2021/09/19 02:00:23;;;;;;;9.32;5.53;;;;;;;11.15;100.00;94633.03;5050428;28;20112;-57
2021/09/19 02:02:52;;;;;;;6.35;5.03;;;;;;;11.21;100.00;94626.56;5051114;28;20162;-56
2021/09/19 02:05:17;;;;;;;6.80;4.95;;;;;;;11.26;100.00;94623.81;5033075;28;20071;-55
2021/09/19 02:07:43;;;;;;;6.00;5.03;;;;;;;11.26;100.00;94615.78;5030559;28;20022;-56
2021/09/19 02:10:12;;;;;;;6.15;5.55;;;;;;;11.25;100.00;94608.81;5031128;28;20029;-57
2021/09/19 02:12:39;;;;;;;6.60;5.55;;;;;;;11.25;100.00;94602.66;5031414;28;20049;-56
2021/09/19 02:15:07;;;;;;;7.10;5.60;;;;;;;11.24;100.00;94599.19;5047306;28;20025;-57
2021/09/19 02:17:35;;;;;;;7.85;5.43;;;;;;;11.21;100.00;94597.06;5040141;28;20029;-56
2021/09/19 02:20:01;;;;;;;6.50;5.13;;;;;;;11.19;100.00;94603.78;5030901;28;20056;-53
2021/09/19 02:22:29;;;;;;;9.20;5.78;;;;;;;11.14;100.00;94596.56;5043192;28;20476;-57
2021/09/19 02:24:55;;;;;;;9.90;5.32;;;;;;;11.12;100.00;94595.25;5054467;28;20033;-52
2021/09/19 02:27:26;;;;;;;6.55;5.40;;;;;;;11.07;100.00;94603.31;5053816;28;20506;-54
2021/09/19 02:29:51;;;;;;;7.55;5.65;;;;;;;11.01;100.00;94598.00;5054867;28;20029;-57
2021/09/19 02:32:22;;;;;;;6.57;5.60;;;;;;;10.93;100.00;94603.97;5037260;28;20086;-55
2021/09/19 02:34:48;;;;;;;6.75;5.70;;;;;;;10.86;100.00;94611.53;5035870;28;20029;-55
2021/09/19 02:37:14;;;;;;;6.25;5.28;;;;;;;10.82;100.00;94604.31;5046625;28;20039;-55
2021/09/19 02:39:39;;;;;;;8.30;6.30;;;;;;;10.75;100.00;94599.28;5054790;28;20040;-56
2021/09/19 02:42:05;;;;;;;6.63;5.60;;;;;;;10.67;100.00;94599.84;5055111;28;20029;-56
2021/09/19 02:44:36;;;;;;;6.88;5.63;;;;;;;10.60;100.00;94607.38;5055098;28;20028;-57
2021/09/19 02:47:04;;;;;;;7.85;5.72;;;;;;;10.52;100.00;94608.75;5054870;28;20032;-51
2021/09/19 02:49:29;;;;;;;7.75;6.10;;;;;;;10.42;100.00;94625.69;5054742;28;20059;-51
2021/09/19 02:51:55;;;;;;;9.98;6.40;;;;;;;10.37;100.00;94632.94;5055156;28;20449;-53
2021/09/19 02:54:23;;;;;;;8.40;6.60;;;;;;;10.32;100.00;94641.78;5037069;28;20071;-52
2021/09/19 02:56:49;;;;;;;11.02;6.35;;;;;;;10.26;100.00;94642.06;5034921;28;20029;-51
2021/09/19 02:59:14;;;;;;;7.75;6.20;;;;;;;10.18;100.00;94652.22;5036248;28;20044;-55
2021/09/19 03:01:40;;;;;;;6.88;6.03;;;;;;;10.07;100.00;94656.00;5044234;28;20013;-57
2021/09/19 03:04:05;;;;;;;8.15;5.88;;;;;;;9.96;100.00;94659.78;5034730;28;20512;-55
2021/09/19 03:06:30;;;;;;;8.02;6.38;;;;;;;9.85;100.00;94666.22;5037853;28;20071;-58
2021/09/19 03:08:59;;;;;;;8.23;6.50;;;;;;;9.74;100.00;94665.44;5037933;28;20033;-56
2021/09/19 03:11:24;;;;;;;8.25;6.22;;;;;;;9.66;100.00;94679.38;5034722;28;20030;-53
2021/09/19 03:13:53;;;;;;;11.05;7.80;;;;;;;9.58;100.00;94678.03;5033440;28;20497;-56
2021/09/19 03:16:22;;;;;;;6.93;6.05;;;;;;;9.49;100.00;94687.66;5034698;28;20384;-51
2021/09/19 03:18:47;;;;;;;8.52;6.72;;;;;;;9.47;100.00;94694.34;5034087;28;20485;-58
2021/09/19 03:21:15;;;;;;;8.45;6.35;;;;;;;9.43;100.00;94701.28;5034589;28;20036;-57
2021/09/19 03:23:43;;;;;;;8.68;7.07;;;;;;;9.38;100.00;94703.94;5034412;28;20025;-57
2021/09/19 03:26:09;;;;;;;8.95;6.70;;;;;;;9.34;100.00;94714.38;5034175;28;20022;-56
2021/09/19 03:28:34;;;;;;;7.85;6.25;;;;;;;9.27;100.00;94725.31;5033509;28;20174;-54
2021/09/19 03:30:59;;;;;;;8.30;6.50;;;;;;;9.23;100.00;94729.59;5034319;28;20028;-56
2021/09/19 03:33:25;;;;;;;7.90;6.20;;;;;;;9.20;100.00;94738.13;5036016;28;20029;-54
2021/09/19 03:35:50;;;;;;;8.35;6.78;;;;;;;9.16;100.00;94739.72;5054273;28;20039;-53
2021/09/19 03:38:16;;;;;;;7.43;6.45;;;;;;;9.13;100.00;94734.91;5052590;28;20440;-55
2021/09/19 03:40:42;;;;;;;7.78;6.35;;;;;;;9.13;100.00;94739.47;5052565;28;20025;-56
2021/09/19 03:43:10;;;;;;;9.30;7.60;;;;;;;9.15;100.00;94735.47;5053995;28;20040;-52
2021/09/19 03:45:35;;;;;;;9.55;7.53;;;;;;;9.15;100.00;94740.00;5054070;28;20040;-52
2021/09/19 03:48:10;;;;;;;9.73;7.20;;;;;;;9.19;100.00;94738.41;5053415;28;20474;-55
2021/09/19 03:50:36;;;;;;;11.20;7.05;;;;;;;9.20;100.00;94735.44;5053744;28;20120;-55
2021/09/19 03:53:05;;;;;;;11.40;7.40;;;;;;;9.23;100.00;94736.81;5052456;28;20499;-56
2021/09/19 03:55:38;;;;;;;9.82;7.45;;;;;;;9.24;100.00;94738.41;5052607;28;20021;-54
2021/09/19 03:58:03;;;;;;;;;;;;;;;9.22;100.00;94741.31;5052565;28;20111;-55
2021/09/19 04:00:31;;;;;;;11.00;7.27;;;;;;;9.22;100.00;94743.19;5053693;28;20012;-54
2021/09/19 04:02:57;;;;;;;10.10;7.68;;;;;;;9.17;100.00;94745.88;5046610;28;20307;-56
2021/09/19 04:05:23;;;;;;;9.88;7.25;;;;;;;9.10;100.00;94745.31;5033728;28;20079;-58
2021/09/19 04:07:50;;;;;;;9.38;7.63;;;;;;;9.05;100.00;94746.13;5045545;28;20075;-53
2021/09/19 04:10:16;;;;;;;10.85;7.68;;;;;;;9.05;100.00;94732.75;5053470;28;20399;-54
2021/09/19 04:12:42;;;;;;;10.55;8.25;;;;;;;9.08;100.00;94723.41;5053502;28;20048;-56
2021/09/19 04:15:12;;;;;;;10.48;7.97;;;;;;;9.13;100.00;94724.22;5053420;28;20017;-53
2021/09/19 04:17:41;;;;;;;10.43;8.75;;;;;;;9.18;100.00;94718.09;5052041;28;20017;-52
2021/09/19 04:20:16;;;;;;;10.73;8.02;;;;;;;9.22;100.00;94716.47;5051881;28;20028;-51
2021/09/19 04:22:50;;;;;;;15.13;8.75;;;;;;;9.21;100.00;94691.63;5035447;28;20071;-55
2021/09/19 04:25:17;;;;;;;9.95;7.45;;;;;;;9.23;100.00;94686.84;5052380;28;20043;-54
2021/09/19 04:27:52;;;;;;;10.23;8.00;;;;;;;9.27;100.00;94679.09;5052596;28;20055;-55
2021/09/19 04:30:17;;;;;;;10.63;7.82;;;;;;;9.30;100.00;94690.03;5053196;28;20116;-55
2021/09/19 04:32:51;;;;;;;10.75;7.97;;;;;;;9.34;100.00;94701.03;5052907;28;20527;-51
2021/09/19 04:35:17;;;;;;;10.23;8.00;;;;;;;9.35;100.00;94709.84;5053072;28;20434;-56
2021/09/19 04:37:47;;;;;;;8.95;7.45;;;;;;;9.33;100.00;94720.78;5051183;28;20507;-52
2021/09/19 04:40:13;;;;;;;11.50;7.88;;;;;;;9.29;100.00;94725.06;5051722;28;20063;-53
2021/09/19 04:42:38;;;;;;;10.70;8.20;;;;;;;9.23;100.00;94736.81;5052488;28;20110;-53
2021/09/19 04:45:06;;;;;;;8.98;7.45;;;;;;;9.13;100.00;94737.59;5034700;28;20032;-55
2021/09/19 04:47:32;;;;;;;10.40;6.53;;;;;;;9.07;100.00;94743.97;5043056;28;20163;-52
2021/09/19 04:49:57;;;;;;;9.18;7.10;;;;;;;9.03;100.00;94748.25;5052044;28;20462;-58
2021/09/19 04:52:22;;;;;;;8.55;6.90;;;;;;;8.98;100.00;94737.53;5053239;28;20021;-58
2021/09/19 04:54:48;;;;;;;10.95;8.20;;;;;;;8.90;100.00;94738.03;5053443;28;20053;-55
2021/09/19 04:57:13;;;;;;;11.25;8.20;;;;;;;8.85;100.00;94741.50;5069036;28;20484;-57
2021/09/19 04:59:38;;;;;;;10.40;8.02;;;;;;;8.78;100.00;94740.94;5049292;28;20021;-55
2021/09/19 05:02:04;;;;;;;14.00;9.13;;;;;;;8.67;100.00;94731.28;5032123;28;20029;-56
2021/09/19 05:04:30;;;;;;;12.90;9.75;;;;;;;8.53;100.00;94730.16;5033247;28;20025;-54
2021/09/19 05:06:55;;;;;;;11.13;7.97;;;;;;;8.43;100.00;94722.91;5033305;28;20112;-55
2021/09/19 05:09:21;;;;;;;13.80;9.07;;;;;;;8.39;100.00;94730.66;5033277;28;20561;-54
2021/09/19 05:11:55;;;;;;;12.50;8.60;;;;;;;8.31;100.00;94723.09;5033183;28;20033;-56
2021/09/19 05:14:20;;;;;;;10.35;8.57;;;;;;;8.25;100.00;94723.31;5032964;28;20071;-56
2021/09/19 05:16:46;;;;;;;14.43;10.63;;;;;;;8.16;100.00;94725.69;5047121;28;20033;-55
2021/09/19 05:19:14;;;;;;;14.88;11.00;;;;;;;8.12;100.00;94730.72;5051578;28;20033;-57
2021/09/19 05:21:40;;;;;;;19.25;11.73;;;;;;;8.31;100.00;94725.75;5053001;28;20025;-53
2021/09/19 05:24:11;;;;;;;17.17;12.45;;;;;;;8.41;100.00;94722.38;5052936;28;20498;-58
2021/09/19 05:26:37;;;;;;;20.75;14.48;;;;;;;8.42;100.00;94718.66;5042224;28;20127;-59
2021/09/19 05:29:02;;;;;;;21.38;15.43;;;;;;;8.43;100.00;94728.25;5044767;28;20049;-55
2021/09/19 05:31:30;;;;;;;22.10;15.32;;;;;;;8.45;100.00;94736.00;5032923;28;20041;-55
2021/09/19 05:33:56;;;;;;;26.25;16.85;;;;;;;8.49;100.00;94734.44;5032748;28;20104;-56
2021/09/19 05:36:22;;;;;;;23.65;16.33;;;;;;;8.52;100.00;94741.91;5032405;28;20400;-57
2021/09/19 05:38:47;;;;;;;25.23;17.08;;;;;;;8.50;100.00;94752.06;4954499;28;20037;-55
2021/09/19 05:41:12;;;;;;;23.10;16.65;;;;;;;8.50;100.00;94763.53;5048520;28;20075;-55
2021/09/19 05:43:38;;;;;;;24.13;15.65;;;;;;;8.50;100.00;94773.41;5051184;28;20020;-55
2021/09/19 05:46:03;;;;;;;21.85;15.65;;;;;;;8.55;100.00;94782.22;5052148;28;20526;-55
2021/09/19 05:48:29;;;;;;;23.60;16.30;;;;;;;8.72;100.00;94792.72;5052352;28;20116;-51
2021/09/19 05:50:57;;;;;;;22.58;16.00;;;;;;;8.89;100.00;94801.34;5040522;28;20035;-56
2021/09/19 05:53:22;;;;;;;21.67;15.45;;;;;;;9.06;100.00;94803.03;5052872;28;20028;-56
2021/09/19 05:55:47;;;;;;;21.85;14.95;;;;;;;9.18;100.00;94800.91;5045141;28;20047;-55
2021/09/19 05:58:13;;;;;;;21.70;16.13;;;;;;;9.31;100.00;94805.75;5038653;28;20021;-51
2021/09/19 06:00:39;;;;;;;22.95;16.35;;;;;;;9.43;100.00;94789.47;5033950;28;20109;-57
2021/09/19 06:03:04;;;;;;;24.90;16.58;;;;;;;9.55;100.00;94776.66;5049821;28;20025;-52
2021/09/19 06:05:30;;;;;;;25.92;17.52;;;;;;;9.69;100.00;94768.94;5043848;28;20025;-53
2021/09/19 06:07:55;;;;;;;25.23;17.05;;;;;;;9.79;100.00;94760.94;5040460;28;20104;-54
2021/09/19 06:10:20;;;;;;;24.52;16.83;;;;;;;9.89;100.00;94758.25;5029670;28;20033;-60
2021/09/19 06:12:49;;;;;;;24.90;18.00;;;;;;;9.97;100.00;94752.34;5039095;28;20021;-55
2021/09/19 06:15:14;;;;;;;25.50;17.20;;;;;;;10.05;100.00;94754.47;5051284;28;20111;-55
2021/09/19 06:17:42;;;;;;;27.38;19.65;;;;;;;10.15;100.00;94757.16;5050682;28;20108;-57
2021/09/19 06:20:08;;;;;;;26.23;18.17;;;;;;;10.29;100.00;94773.47;5052088;28;20384;-59
2021/09/19 06:22:34;;;;;;;30.15;18.27;;;;;;;10.39;100.00;94776.16;5050846;28;20029;-54
2021/09/19 06:24:59;;;;;;;26.52;18.20;;;;;;;10.48;100.00;94797.81;5052465;28;20368;-57
2021/09/19 06:27:25;;;;;;;22.77;15.57;;;;;;;10.58;100.00;94811.19;5048879;28;20399;-57
2021/09/19 06:29:50;;;;;;;23.27;16.02;;;;;;;10.66;100.00;94815.19;5051969;28;20036;-55
2021/09/19 06:32:16;;;;;;;20.90;15.13;;;;;;;10.72;100.00;94816.78;5050647;28;20029;-56
2021/09/19 06:34:41;;;;;;;21.40;15.02;;;;;;;10.77;100.00;94811.44;5050669;28;20116;-56
2021/09/19 06:37:08;;;;;;;18.45;14.57;;;;;;;10.79;100.00;94813.81;5050503;28;20092;-57
2021/09/19 06:39:36;;;;;;;22.27;15.48;;;;;;;10.82;100.00;94822.13;5051751;28;20021;-58
2021/09/19 06:42:02;;;;;;;21.58;13.95;;;;;;;10.84;100.00;94836.03;5050792;28;20029;-58
2021/09/19 06:44:28;;;;;;;22.50;14.98;;;;;;;10.87;100.00;94835.50;5030775;28;20025;-56
2021/09/19 06:46:56;;;;;;;19.55;14.10;;;;;;;10.91;100.00;94836.56;5048349;28;20031;-57
2021/09/19 06:49:23;;;;;;;21.25;13.95;;;;;;;10.97;100.00;94835.47;5050904;28;20462;-58
2021/09/19 06:51:54;;;;;;;20.23;13.88;;;;;;;11.03;100.00;94837.06;5031880;28;20076;-58
2021/09/19 06:54:23;;;;;;;19.88;14.27;;;;;;;11.08;100.00;94833.56;5031995;28;20547;-56
2021/09/19 06:56:49;;;;;;;20.08;13.57;;;;;;;11.15;100.00;94841.31;5039099;28;20064;-58
2021/09/19 06:59:15;;;;;;;23.27;14.13;;;;;;;11.19;100.00;94832.44;5050180;28;20033;-57
2021/09/19 07:01:41;;;;;;;18.20;14.00;;;;;;;11.26;100.00;94829.47;5051770;28;20365;-59
2021/09/19 07:04:06;;;;;;;21.05;13.95;;;;;;;11.33;100.00;94832.66;5051671;28;20071;-58
2021/09/19 07:06:41;;;;;;;20.13;14.80;;;;;;;11.40;100.00;94822.44;5051671;28;20035;-56
2021/09/19 07:09:09;;;;;;;19.17;13.38;;;;;;;11.45;100.00;94825.09;5054004;28;20025;-54
2021/09/19 07:11:44;;;;;;;15.93;12.80;;;;;;;11.51;100.00;94829.34;5055314;28;20025;-58
2021/09/19 07:14:12;;;;;;;17.55;12.45;;;;;;;11.55;100.00;94827.72;5055326;28;20049;-56
2021/09/19 07:16:41;;;;;;;16.38;13.00;;;;;;;11.60;100.00;94816.94;5055844;28;20099;-58
2021/09/19 07:19:08;;;;;;;17.73;12.85;;;;;;;11.63;100.00;94810.25;5055115;28;20387;-57
2021/09/19 07:21:37;;;;;;;20.70;13.20;;;;;;;11.71;100.00;94816.88;5053949;28;20047;-58
2021/09/19 07:24:02;;;;;;;18.60;12.77;;;;;;;11.79;100.00;94818.97;5054855;28;20120;-57
2021/09/19 07:26:28;;;;;;;18.08;12.95;;;;;;;11.82;100.00;94823.81;5055514;28;20516;-57
2021/09/19 07:29:00;;;;;;;17.00;12.77;;;;;;;11.90;100.00;94807.13;5054657;28;20427;-58
2021/09/19 07:31:25;;;;;;;17.80;12.85;;;;;;;11.99;100.00;94797.41;5053918;28;20120;-57
2021/09/19 07:33:51;;;;;;;16.90;12.40;;;;;;;12.10;100.00;94798.91;5054742;28;20040;-58
2021/09/19 07:36:27;;;;;;;18.33;12.25;;;;;;;12.23;100.00;94788.63;5054935;28;20033;-56
2021/09/19 07:39:05;;;;;;;14.02;10.25;;;;;;;12.36;100.00;94774.53;5053509;28;20512;-56
2021/09/19 07:41:53;;;;;;;14.52;10.60;;;;;;;12.56;100.00;94768.16;5054820;28;20021;-56
2021/09/19 07:44:24;;;;;;;12.80;10.43;;;;;;;12.70;100.00;94758.34;5041973;28;20112;-57
2021/09/19 07:46:50;;;;;;;13.38;9.77;;;;;;;12.83;100.00;94751.47;5039980;28;20029;-59
2021/09/19 07:49:21;;;;;;;12.30;9.70;;;;;;;12.84;100.00;94734.25;5020411;28;20059;-53
2021/09/19 07:51:47;;;;;;;12.00;9.27;;;;;;;12.92;100.00;94722.88;5047710;28;20034;-55
2021/09/19 07:54:13;;;;;;;10.93;8.48;;;;;;;12.92;100.00;94715.63;5033557;28;20420;-54
2021/09/19 07:56:38;;;;;;;14.45;8.02;;;;;;;12.89;100.00;94700.03;5034900;28;20055;-60
2021/09/19 07:59:07;;;;;;;9.18;7.32;;;;;;;12.84;100.00;94680.50;5046816;28;20112;-59
2021/09/19 08:01:32;;;;;;;10.02;7.50;;;;;;;12.86;100.00;94668.38;5054394;28;20495;-58
2021/09/19 08:03:57;;;;;;;11.23;6.80;;;;;;;12.84;100.00;94659.81;5053999;28;20064;-57
2021/09/19 08:06:23;;;;;;;9.68;7.18;;;;;;;12.85;100.00;94650.66;5053468;28;20029;-58
2021/09/19 08:08:50;;;;;;;8.77;6.72;;;;;;;12.88;100.00;94642.00;5051004;28;20028;-57
2021/09/19 08:11:16;;;;;;;10.45;6.93;;;;;;;12.93;100.00;94638.47;5052602;28;20090;-60
2021/09/19 08:13:42;;;;;;;13.15;6.00;;;;;;;12.92;100.00;94634.97;5052440;28;20055;-56
2021/09/19 08:16:09;;;;;;;6.72;5.60;;;;;;;12.93;100.00;94639.25;5052339;28;20037;-58
2021/09/19 08:18:35;;;;;;;6.78;5.97;;;;;;;12.96;100.00;94635.19;5052951;28;20024;-57
2021/09/19 08:21:00;;;;;;;6.10;4.88;;;;;;;12.96;100.00;94646.75;5035959;28;20079;-59
2021/09/19 08:23:29;;;;;;;5.70;4.95;;;;;;;13.03;100.00;94649.88;5035003;28;20029;-59
2021/09/19 08:25:55;;;;;;;4.90;4.20;;;;;;;13.07;100.00;94642.00;5033873;28;20028;-57
2021/09/19 08:28:27;;;;;;;4.47;4.03;;;;;;;13.16;100.00;94652.91;5033916;28;20057;-59
2021/09/19 08:30:57;;;;;;;5.30;3.78;;;;;;;13.18;100.00;94653.44;5035554;28;20044;-59
2021/09/19 08:33:28;;;;;;;3.80;3.10;;;;;;;13.22;100.00;94665.22;5040941;28;20029;-59
2021/09/19 08:35:59;;;;;;;5.72;3.20;;;;;;;13.22;100.00;94665.22;5023730;28;20103;-58
2021/09/19 08:38:25;;;;;;;3.97;3.20;;;;;;;13.26;100.00;94664.38;5039356;28;20033;-57
2021/09/19 08:40:52;;;;;;;5.20;3.03;;;;;;;13.28;100.00;94669.44;5033840;28;20362;-60
2021/09/19 08:43:21;;;;;;;3.50;3.00;;;;;;;13.27;100.00;94675.91;5033791;28;20586;-59
2021/09/19 08:45:50;;;;;;;2.90;2.60;;;;;;;13.28;100.00;94683.69;5032542;28;20068;-56
2021/09/19 08:48:17;;;;;;;2.50;2.30;;;;;;;13.30;100.00;94683.41;5037618;28;20091;-59
2021/09/19 08:50:50;;;;;;;3.60;2.05;;;;;;;13.28;100.00;94693.66;5033679;28;20029;-60
2021/09/19 08:53:19;;;;;;;2.22;2.00;;;;;;;13.24;100.00;94693.44;5033558;28;20484;-59
2021/09/19 08:55:45;;;;;;;2.10;1.50;;;;;;;13.21;100.00;94710.13;5033589;28;20109;-57
2021/09/19 08:58:26;;;;;;;1.20;1.10;;;;;;;13.21;100.00;94731.66;5033493;28;20021;-58
2021/09/19 09:00:59;;;;;;;0.80;0.70;;;;;;;13.16;100.00;94728.22;5033549;28;20088;-60
2021/09/19 09:03:26;;;;;;;1.10;1.00;;;;;;;13.24;100.00;94741.03;5051479;28;20021;-59
2021/09/19 09:06:07;;;;;;;0.60;0.60;;;;;;;13.34;100.00;94755.13;5052146;28;20041;-59
2021/09/19 09:08:33;;;;;;;0.85;0.60;;;;;;;13.41;100.00;94760.16;5053197;28;20021;-59
2021/09/19 09:11:05;;;;;;;0.52;0.52;;;;;;;13.42;100.00;94769.84;5051836;28;20070;-59
2021/09/19 09:13:36;;;;;;;0.65;0.65;;;;;;;13.31;100.00;94765.69;5053776;28;20025;-58
2021/09/19 09:16:14;;;;;;;1.00;0.60;;;;;;;13.31;100.00;94771.88;5051885;28;20451;-59
2021/09/19 09:18:53;;;;;;;0.40;0.40;;;;;;;13.44;100.00;94769.53;5052777;28;20484;-58
2021/09/19 09:21:28;;;;;;;0.93;0.60;;;;;;;13.46;100.00;94768.19;5053094;28;20028;-59
2021/09/19 09:23:59;;;;;;;1.67;0.70;;;;;;;13.44;100.00;94756.09;5035814;28;20036;-58
2021/09/19 09:26:38;;;;;;;0.82;0.65;;;;;;;13.34;100.00;94757.03;5032833;28;20060;-59
2021/09/19 09:29:10;;;;;;;0.68;0.68;;;;;;;13.34;100.00;94752.44;5032623;28;20053;-59
2021/09/19 09:31:47;;;;;;;0.70;0.70;;;;;;;13.39;100.00;94754.28;5032549;28;20033;-59
2021/09/19 09:34:24;;;;;;;1.20;1.00;;;;;;;13.43;100.00;94744.53;5039444;28;20036;-59
2021/09/19 09:37:03;;;;;;;0.70;0.60;;;;;;;13.45;100.00;94736.97;5052519;28;20021;-58
2021/09/19 09:39:40;;;;;;;1.15;0.80;;;;;;;13.47;100.00;94734.81;5044530;28;20455;-61
2021/09/19 09:42:07;;;;;;;1.00;0.65;;;;;;;13.44;100.00;94721.91;4936152;28;20041;-58
2021/09/19 09:44:47;;;;;;;0.57;0.57;;;;;;;13.33;100.00;94712.41;5052665;28;20036;-59
2021/09/19 09:47:19;;;;;;;1.00;0.60;;;;;;;13.30;100.00;94705.72;5052266;28;20025;-58
2021/09/19 09:49:44;;;;;;;0.98;0.80;;;;;;;13.24;100.00;94687.22;5037823;28;20152;-59
2021/09/19 09:52:20;;;;;;;0.90;0.50;;;;;;;13.24;100.00;94688.06;5032516;28;20116;-60
2021/09/19 09:55:01;;;;;;;2.75;0.60;;;;;;;13.21;100.00;94680.56;5031303;28;20073;-58
2021/09/19 09:57:35;;;;;;;0.95;0.60;;;;;;;13.15;100.00;94675.53;5032397;28;20017;-60
2021/09/19 10:00:06;;;;;;;0.90;0.57;;;;;;;13.15;100.00;94673.63;5032498;28;20025;-59
2021/09/19 10:02:58;;;;;;;2.40;0.60;;;;;;;13.09;100.00;94672.09;5032404;28;20025;-55
2021/09/19 10:05:25;;;;;;;2.58;0.52;;;;;;;13.07;100.00;94663.53;5039762;28;20040;-59
2021/09/19 10:07:50;;;;;;;0.70;0.50;;;;;;;13.05;100.00;94666.50;5052124;28;20082;-60
2021/09/19 10:10:28;;;;;;;0.43;0.40;;;;;;;13.04;100.00;94669.50;5052135;28;20033;-59
2021/09/19 10:12:58;;;;;;;0.52;0.52;;;;;;;13.03;100.00;94673.28;5050858;28;20384;-57
2021/09/19 10:15:29;;;;;;;0.82;0.50;;;;;;;13.03;100.00;94679.44;5052100;28;20021;-58
2021/09/19 10:17:56;;;;;;;1.48;0.73;;;;;;;12.97;100.00;94679.78;5032633;28;20029;-55
2021/09/19 10:20:26;;;;;;;2.05;0.90;;;;;;;13.00;100.00;94688.06;5032282;28;20025;-58
2021/09/19 10:23:23;;;;;;;1.70;1.13;;;;;;;13.06;100.00;94684.25;5034634;28;20029;-59
2021/09/19 10:25:54;;;;;;;1.20;0.70;;;;;;;13.03;100.00;94690.19;5031869;28;20029;-57
2021/09/19 10:28:44;;;;;;;2.55;0.63;;;;;;;13.04;100.00;94693.69;5031936;28;20578;-59
2021/09/19 10:31:17;;;;;;;0.82;0.60;;;;;;;12.93;100.00;94706.47;5031947;28;20041;-58
2021/09/19 10:33:52;;;;;;;1.13;0.60;;;;;;;12.84;100.00;94697.44;5032191;28;20017;-59
2021/09/19 10:36:23;;;;;;;0.98;0.52;;;;;;;12.90;100.00;94725.84;5032400;28;20051;-59
2021/09/19 10:39:10;;;;;;;2.33;0.50;;;;;;;12.88;100.00;94729.91;5048316;28;20079;-57
2021/09/19 10:42:04;;;;;;;0.73;0.60;;;;;;;12.88;100.00;94743.34;5052310;28;20037;-62
2021/09/19 10:44:52;;;;;;;1.15;0.55;;;;;;;12.97;100.00;94749.69;5055311;28;20028;-62
2021/09/19 10:47:26;;;;;;;0.50;0.50;;;;;;;13.02;100.00;94755.00;5054676;28;20029;-62
2021/09/19 10:50:29;;;;;;;0.85;0.75;;;;;;;12.99;100.00;94760.94;5055482;28;20376;-62
2021/09/19 10:53:12;;;;;;;0.80;0.60;;;;;;;12.84;100.00;94764.63;5054440;28;20038;-60
2021/09/19 10:55:53;;;;;;;1.10;0.60;;;;;;;12.61;100.00;94776.97;5055965;28;20029;-62
2021/09/19 10:58:53;;;;;;;1.42;0.50;;;;;;;12.42;100.00;94786.84;5055810;28;20033;-62
2021/09/19 11:01:35;;;;;;;0.65;0.60;;;;;;;12.20;100.00;94806.09;5047270;28;20128;-62
2021/09/19 11:04:00;;;;;;;1.17;0.57;;;;;;;12.06;100.00;94826.63;5055907;28;20412;-62
2021/09/19 11:06:36;;;;;;;0.80;0.57;;;;;;;11.95;100.00;94838.50;5054273;28;20028;-62
2021/09/19 11:09:23;;;;;;;1.20;0.60;;;;;;;11.83;100.00;94869.19;5055654;28;20025;-61
2021/09/19 11:12:11;;;;;;;0.85;0.50;;;;;;;11.83;100.00;94884.44;5054351;28;20095;-60
2021/09/19 11:14:56;;;;;;;0.70;0.60;;;;;;;11.79;100.00;94904.84;5054172;28;20029;-61
2021/09/19 11:17:22;;;;;;;0.93;0.60;;;;;;;11.75;100.00;94918.03;5054076;28;20028;-61
2021/09/19 11:20:10;;;;;;;0.73;0.50;;;;;;;11.64;100.00;94927.19;5054120;28;20021;-61
2021/09/19 11:22:36;;;;;;;1.05;0.70;;;;;;;11.56;100.00;94930.44;5050097;28;20034;-62
2021/09/19 11:25:03;;;;;;;1.00;0.60;;;;;;;11.54;100.00;94944.13;5034189;28;20021;-62
2021/09/19 11:27:30;;;;;;;1.58;0.73;;;;;;;11.46;100.00;94958.09;5033843;28;20121;-62
2021/09/19 11:29:57;;;;;;;0.40;0.40;;;;;;;11.38;100.00;94965.91;5035610;28;20554;-62
2021/09/19 11:32:23;;;;;;;0.70;0.40;;;;;;;11.30;100.00;94972.63;5034065;28;20061;-61
2021/09/19 11:34:50;;;;;;;0.60;0.50;;;;;;;11.23;100.00;94986.31;5035190;28;20029;-61